Time;durP1;ratioP1;P1;durP2;ratioP2;P2;SDS_P1;SDS_P2;PMS_P1;PMS_P2;Temp;Humidity;BMP_temperature;BMP_pressure;BME280_temperature;BME280_humidity;BME280_pressure;Samples;Min_cycle;Max_cycle;Signal;HPM_P1;HPM_P2
2022/04/26 03:36:10;;;;;;;4.68;2.60;;;;;;;-142.75;100.00;77869.69;5068862;28;20095;-67
2022/04/26 03:38:36;;;;;;;3.72;2.17;;;;;;;-142.75;100.00;77867.72;5068282;28;20038;-66
2022/04/26 03:41:02;;;;;;;4.70;2.70;;;;;;;-142.75;100.00;77875.59;5069128;28;20016;-66
2022/04/26 03:43:28;;;;;;;7.82;2.88;;;;;;;-142.75;100.00;77873.63;5068331;28;20447;-66
2022/04/26 03:45:53;;;;;;;4.75;2.53;;;;;;;-142.75;100.00;77881.50;5068479;28;20434;-66
2022/04/26 03:48:19;;;;;;;6.88;2.53;;;;;;;-142.75;100.00;77879.53;5068337;28;20071;-67
2022/04/26 03:50:44;;;;;;;13.60;2.50;;;;;;;-142.75;100.00;77885.44;5066976;28;20033;-66
2022/04/26 03:53:09;;;;;;;9.30;2.95;;;;;;;-142.75;100.00;77887.41;5068171;28;20021;-67
2022/04/26 03:55:35;;;;;;;3.73;2.43;;;;;;;-142.75;100.00;77887.41;5067108;28;20401;-67
2022/04/26 03:58:00;;;;;;;6.25;2.60;;;;;;;-142.75;100.00;77889.38;5068228;28;20262;-67
2022/04/26 04:00:26;;;;;;;5.03;2.80;;;;;;;-142.75;100.00;77881.50;5068102;28;20458;-67
2022/04/26 04:02:51;;;;;;;5.75;3.03;;;;;;;-142.75;100.00;77885.44;5068235;28;20266;-67
2022/04/26 04:05:16;;;;;;;7.88;2.45;;;;;;;-142.75;100.00;77887.41;5068156;28;20082;-67
2022/04/26 04:07:42;;;;;;;7.43;3.70;;;;;;;-142.75;100.00;77901.19;5068145;28;20149;-67
2022/04/26 04:10:07;;;;;;;6.80;2.73;;;;;;;-142.75;100.00;77907.09;5068226;28;20469;-67
2022/04/26 04:12:33;;;;;;;5.63;3.17;;;;;;;-142.75;100.00;77905.13;5068243;28;20284;-67
2022/04/26 04:14:58;;;;;;;5.82;3.33;;;;;;;-142.75;100.00;77909.06;5068163;28;20035;-66
2022/04/26 04:17:23;;;;;;;7.63;3.20;;;;;;;-142.75;100.00;77915.00;5068154;28;20474;-67
2022/04/26 04:19:49;;;;;;;4.20;2.80;;;;;;;-142.75;100.00;77916.97;5066464;28;20016;-66
2022/04/26 04:22:14;;;;;;;5.55;3.38;;;;;;;-142.75;100.00;77926.81;5070240;28;20025;-66
2022/04/26 04:24:40;;;;;;;7.57;3.50;;;;;;;-142.75;100.00;77924.84;5068574;28;20048;-67
2022/04/26 04:27:05;;;;;;;7.30;3.90;;;;;;;-142.75;100.00;77926.81;5068218;28;20021;-66
2022/04/26 04:29:30;;;;;;;7.10;4.35;;;;;;;-142.75;100.00;77926.81;5066690;28;20059;-67
2022/04/26 04:31:56;;;;;;;8.85;3.65;;;;;;;-142.75;100.00;77932.72;5068197;28;20020;-66
2022/04/26 04:34:22;;;;;;;6.93;3.58;;;;;;;-142.75;100.00;77924.84;5067982;28;20032;-66
2022/04/26 04:36:48;;;;;;;7.40;3.22;;;;;;;-142.75;100.00;77934.69;5068090;28;20498;-66
2022/04/26 04:39:19;;;;;;;11.15;3.63;;;;;;;-142.75;100.00;77932.72;5067745;28;20119;-66
2022/04/26 04:41:44;;;;;;;9.50;3.50;;;;;;;-142.75;100.00;77942.56;5067063;28;20173;-66
2022/04/26 04:44:10;;;;;;;10.73;3.92;;;;;;;-142.75;100.00;77946.50;5067846;28;20115;-66
2022/04/26 04:46:35;;;;;;;6.45;3.22;;;;;;;-142.75;100.00;77944.53;5066661;28;20069;-67
2022/04/26 04:49:01;;;;;;;7.65;3.42;;;;;;;-142.75;100.00;77944.53;5067489;28;20037;-67
2022/04/26 04:51:26;;;;;;;6.47;3.35;;;;;;;-142.75;100.00;77952.41;5067740;28;20219;-67
2022/04/26 04:53:52;;;;;;;6.72;3.83;;;;;;;-142.75;100.00;77952.41;5067916;28;20028;-67
2022/04/26 04:56:17;;;;;;;7.53;3.97;;;;;;;-142.75;100.00;77960.28;5068433;28;20111;-66
2022/04/26 04:58:42;;;;;;;7.18;3.55;;;;;;;-142.75;100.00;77964.22;5067667;28;20025;-66
2022/04/26 05:01:08;;;;;;;7.10;3.40;;;;;;;-142.75;100.00;77956.34;5067638;28;20035;-67
2022/04/26 05:03:33;;;;;;;8.40;3.75;;;;;;;-142.75;100.00;77952.41;5067730;28;20107;-66
2022/04/26 05:05:58;;;;;;;10.35;3.92;;;;;;;-142.75;100.00;77944.53;5067769;28;20039;-66
2022/04/26 05:08:25;;;;;;;7.50;3.78;;;;;;;-142.75;100.00;77950.44;5069613;28;20016;-67
2022/04/26 05:10:50;;;;;;;8.33;4.03;;;;;;;-142.75;100.00;77948.47;5071721;28;20029;-66
2022/04/26 05:13:15;;;;;;;6.57;3.73;;;;;;;-142.75;100.00;77948.47;5070107;28;20393;-67
2022/04/26 05:15:44;;;;;;;12.65;4.40;;;;;;;-142.75;100.00;77958.31;5069819;28;20277;-67
2022/04/26 05:18:11;;;;;;;7.93;4.18;;;;;;;-142.75;100.00;77960.28;5069803;28;20029;-67
2022/04/26 05:20:37;;;;;;;6.57;3.50;;;;;;;-142.75;100.00;77970.13;5070980;28;20036;-66
2022/04/26 05:25:46;;;;;;;9.13;4.53;;;;;;;-142.75;100.00;77970.13;5071916;28;20031;-67
2022/04/26 05:28:11;;;;;;;9.00;4.32;;;;;;;-142.75;100.00;77976.03;5071878;28;20521;-67
2022/04/26 05:30:37;;;;;;;8.45;4.07;;;;;;;-142.75;100.00;77974.06;5071339;28;20024;-66
2022/04/26 05:33:02;;;;;;;7.70;4.05;;;;;;;-142.75;100.00;77974.06;5071614;28;20107;-66
2022/04/26 05:35:27;;;;;;;12.18;4.35;;;;;;;-142.75;100.00;77964.22;5071563;28;20035;-66
2022/04/26 05:37:52;;;;;;;11.20;4.00;;;;;;;-142.75;100.00;77968.16;5071480;28;20028;-67
2022/04/26 05:40:18;;;;;;;6.88;3.75;;;;;;;-142.75;100.00;77972.09;5071318;28;20389;-67
2022/04/26 05:42:43;;;;;;;9.02;3.33;;;;;;;-142.75;100.00;77960.28;5070539;28;20038;-67
2022/04/26 05:45:09;;;;;;;9.68;4.10;;;;;;;-142.75;100.00;77964.22;5071283;28;20071;-66
2022/04/26 05:47:40;;;;;;;9.55;3.70;;;;;;;-142.75;100.00;77968.16;5071350;28;20053;-66
2022/04/26 05:50:06;;;;;;;9.07;3.60;;;;;;;-142.75;100.00;77968.16;5070842;28;20024;-66
2022/04/26 05:52:32;;;;;;;;;;;;;;;-142.75;100.00;77964.22;5071672;28;20024;-66
2022/04/26 05:54:58;;;;;;;10.38;4.25;;;;;;;-142.75;100.00;77960.28;5071516;28;19919;-67
2022/04/26 05:57:23;;;;;;;9.25;3.88;;;;;;;-142.75;100.00;77960.28;5071259;28;20036;-67
2022/04/26 05:59:49;;;;;;;11.00;4.10;;;;;;;-142.75;100.00;77938.63;5071164;28;20490;-67
2022/04/26 06:02:14;;;;;;;14.10;4.53;;;;;;;-142.75;100.00;77936.66;5071396;28;20516;-66
2022/04/26 06:04:39;;;;;;;9.88;4.13;;;;;;;-142.75;100.00;77928.78;5071438;28;20031;-67
2022/04/26 06:07:05;;;;;;;10.00;4.20;;;;;;;-142.75;100.00;77915.00;5071653;28;20013;-66
2022/04/26 06:09:31;;;;;;;7.07;3.92;;;;;;;-142.75;100.00;77897.25;5070874;28;20478;-66
2022/04/26 06:11:57;;;;;;;9.30;3.72;;;;;;;-142.75;100.00;77879.53;5071344;28;20104;-66
2022/04/26 06:14:23;;;;;;;;;;;;;;;-142.75;100.00;77865.75;5071359;28;20048;-66
2022/04/26 06:16:48;;;;;;;8.07;3.92;;;;;;;-142.75;100.00;77863.78;5070870;28;19948;-66
2022/04/26 06:19:13;;;;;;;9.55;3.65;;;;;;;-142.75;100.00;77873.63;5068551;28;20028;-66
2022/04/26 06:21:38;;;;;;;7.25;4.20;;;;;;;-142.75;100.00;77857.88;5070514;28;20020;-67
2022/04/26 06:24:04;;;;;;;6.53;4.43;;;;;;;-142.75;100.00;77828.34;5069699;28;20485;-66
2022/04/26 06:26:29;;;;;;;10.85;4.20;;;;;;;-142.75;100.00;77806.69;5070112;28;20271;-66
2022/04/26 06:28:54;;;;;;;10.18;3.78;;;;;;;-142.75;100.00;77773.22;5067154;28;20477;-66
2022/04/26 06:31:20;;;;;;;7.00;4.22;;;;;;;-142.75;100.00;77751.56;5067587;28;20023;-66
2022/04/26 06:33:45;;;;;;;7.80;4.18;;;;;;;-142.75;100.00;77767.31;5069702;28;20017;-66
2022/04/26 06:36:11;;;;;;;14.15;4.20;;;;;;;-142.75;100.00;77773.22;5069404;28;20054;-66
2022/04/26 06:38:36;;;;;;;10.18;3.97;;;;;;;-142.75;100.00;77779.13;5068694;28;20043;-65
2022/04/26 06:41:02;;;;;;;7.10;3.93;;;;;;;-142.75;100.00;77804.72;5069761;28;20020;-66
2022/04/26 06:43:29;;;;;;;10.80;4.25;;;;;;;-142.75;100.00;77822.44;5069428;28;20274;-66
2022/04/26 06:45:54;;;;;;;14.40;3.95;;;;;;;-142.75;100.00;77853.94;5068963;28;20101;-65
2022/04/26 06:48:20;;;;;;;8.90;3.90;;;;;;;-142.75;100.00;77873.63;5068942;28;20497;-67
2022/04/26 06:50:46;;;;;;;8.25;3.50;;;;;;;-142.75;100.00;77879.53;5068712;28;20040;-66
2022/04/26 06:53:13;;;;;;;9.48;3.65;;;;;;;-142.75;100.00;77855.91;5068905;28;20016;-66
2022/04/26 06:55:38;;;;;;;8.13;3.45;;;;;;;-142.75;100.00;77808.66;5069153;28;20028;-66
2022/04/26 06:58:04;;;;;;;7.70;3.47;;;;;;;-142.75;100.00;77781.09;5069033;28;20021;-66
2022/04/26 07:00:29;;;;;;;9.93;3.75;;;;;;;-142.75;100.00;77773.22;5069108;28;20403;-66
2022/04/26 07:02:55;;;;;;;8.25;3.53;;;;;;;-142.75;100.00;77723.97;5069836;28;20036;-66
2022/04/26 07:05:21;;;;;;;5.95;3.15;;;;;;;-142.75;100.00;77676.72;5070354;28;20020;-67
2022/04/26 07:07:49;;;;;;;10.13;3.50;;;;;;;-142.75;100.00;77655.06;5068467;28;20775;-66
2022/04/26 07:10:14;;;;;;;11.25;3.08;;;;;;;-142.75;100.00;77607.81;5068194;28;20050;-66
2022/04/26 07:12:40;;;;;;;7.88;3.25;;;;;;;-142.75;100.00;77578.28;5069003;28;20024;-66
2022/04/26 07:15:05;;;;;;;9.77;3.17;;;;;;;-142.75;100.00;77562.53;5068208;28;20021;-66
2022/04/26 07:17:31;;;;;;;6.72;2.92;;;;;;;-142.75;100.00;77550.72;5070526;28;20071;-66
2022/04/26 07:20:00;;;;;;;8.48;3.22;;;;;;;-142.75;100.00;77540.88;5068972;28;20035;-67
2022/04/26 07:22:26;;;;;;;8.10;2.55;;;;;;;-142.75;100.00;77538.91;5070260;28;20371;-66
2022/04/26 07:24:51;;;;;;;9.30;3.10;;;;;;;-142.75;100.00;77521.19;5069191;28;20062;-66
2022/04/26 07:27:18;;;;;;;9.65;2.83;;;;;;;-142.75;100.00;77519.22;5069388;28;20078;-65
2022/04/26 07:29:48;;;;;;;7.93;2.83;;;;;;;-142.75;100.00;77477.88;5070122;28;20043;-66
2022/04/26 07:32:13;;;;;;;4.38;2.50;;;;;;;-142.75;100.00;77446.34;5067239;28;20036;-67
2022/04/26 07:34:38;;;;;;;9.02;2.65;;;;;;;-142.75;100.00;77410.91;5067835;28;20025;-66
2022/04/26 07:37:04;;;;;;;6.75;2.53;;;;;;;-142.75;100.00;77397.13;5068988;28;20017;-67
2022/04/26 07:39:30;;;;;;;12.23;2.78;;;;;;;-142.75;100.00;77369.56;5068962;28;20439;-67
2022/04/26 07:41:55;;;;;;;;;;;;;;;-142.75;100.00;77373.50;5070297;28;20028;-67
2022/04/26 07:44:21;;;;;;;7.07;2.92;;;;;;;-142.75;100.00;77355.78;5085130;28;20377;-67
2022/04/26 07:46:48;;;;;;;6.05;2.22;;;;;;;-142.75;100.00;77308.53;5069460;28;20040;-67
2022/04/26 07:49:15;;;;;;;5.75;1.98;;;;;;;-142.75;100.00;77318.38;5067445;28;20618;-67
2022/04/26 07:51:41;;;;;;;5.60;2.30;;;;;;;-142.75;100.00;77294.75;5051210;28;20318;-67
2022/04/26 07:54:07;;;;;;;9.23;2.47;;;;;;;-142.75;100.00;77279.00;5067534;28;20032;-66
2022/04/26 07:56:32;;;;;;;9.95;2.90;;;;;;;-142.75;100.00;77243.56;5069235;28;20161;-66
2022/04/26 07:58:59;;;;;;;;;;;;;;;-142.75;100.00;77223.88;5069185;28;20028;-66
2022/04/26 08:01:25;;;;;;;5.47;2.33;;;;;;;-142.75;100.00;77263.25;5069326;28;19919;-67
2022/04/26 08:03:51;;;;;;;;;;;;;;;-142.75;100.00;77229.78;5069920;28;20029;-67
2022/04/26 08:06:16;;;;;;;7.95;2.40;;;;;;;-142.75;100.00;77231.75;5067284;28;19913;-66
2022/04/26 08:08:41;;;;;;;7.88;2.90;;;;;;;-142.75;100.00;77229.78;5066788;28;20040;-66
2022/04/26 08:11:11;;;;;;;7.32;3.33;;;;;;;-142.75;100.00;77190.41;5069415;28;20032;-66
2022/04/26 08:13:37;;;;;;;3.30;2.03;;;;;;;-142.75;100.00;77182.53;5069385;28;20032;-66
2022/04/26 08:16:02;;;;;;;7.57;2.67;;;;;;;-142.75;100.00;77204.19;5068965;28;20040;-67
2022/04/26 08:18:27;;;;;;;6.70;2.60;;;;;;;-142.75;100.00;77284.91;5067755;28;20501;-67
2022/04/26 08:20:52;;;;;;;;;;;;;;;-142.75;100.00;77298.69;5069487;28;20047;-67
2022/04/26 08:23:18;;;;;;;5.93;2.33;;;;;;;-142.75;100.00;77345.94;5068590;28;20392;-66
2022/04/26 08:28:28;;;;;;;10.18;3.20;;;;;;;-142.75;100.00;77251.44;5068671;28;19927;-67
2022/04/26 08:30:55;;;;;;;8.52;2.50;;;;;;;-142.75;100.00;77223.88;5068861;28;20117;-66
2022/04/26 08:33:21;;;;;;;8.88;2.92;;;;;;;-142.75;100.00;77306.56;5068953;28;20036;-67
2022/04/26 08:35:46;;;;;;;8.13;2.47;;;;;;;-142.75;100.00;77247.50;5067052;28;20677;-66
2022/04/26 08:38:12;;;;;;;6.80;2.20;;;;;;;-142.75;100.00;77227.81;5067888;28;20110;-66
2022/04/26 08:40:37;;;;;;;6.22;2.10;;;;;;;-142.75;100.00;77180.56;5068568;28;20032;-67
2022/04/26 08:43:02;;;;;;;;;;;;;;;-142.75;100.00;77153.00;5073047;28;20032;-67
2022/04/26 08:45:29;;;;;;;9.93;2.00;;;;;;;-142.75;100.00;77180.56;5072511;28;19912;-67
2022/04/26 08:53:23;;;;;;;5.15;2.03;;;;;;;-142.75;100.00;77117.56;5072643;28;20050;-67
2022/04/26 08:55:50;;;;;;;;;;;;;;;-142.75;100.00;77078.19;5071970;28;20115;-67
2022/04/26 08:58:18;;;;;;;8.38;2.65;;;;;;;-142.75;100.00;77086.06;5072449;28;19913;-66
2022/04/26 09:01:03;;;;;;;5.95;2.20;;;;;;;-142.75;100.00;77078.19;5072396;28;20374;-68
2022/04/26 09:03:32;;;;;;;8.52;2.30;;;;;;;-142.75;100.00;77078.19;5070806;28;20073;-67
2022/04/26 09:06:17;;;;;;;4.13;1.80;;;;;;;-142.75;100.00;77046.69;5072095;28;20031;-67
2022/04/26 09:08:44;;;;;;;4.63;1.92;;;;;;;-142.75;98.14;77028.97;5072067;28;20135;-67
2022/04/26 09:11:39;;;;;;;3.63;1.75;;;;;;;-142.75;93.56;76993.53;5071251;28;20012;-67
2022/04/26 09:14:11;;;;;;;6.22;1.80;;;;;;;-142.75;92.14;76983.69;5067440;28;20123;-67
2022/04/26 09:16:36;;;;;;;3.45;1.95;;;;;;;-142.75;92.10;76936.44;5072340;28;20108;-67
2022/04/26 09:19:06;;;;;;;;;;;;;;;-142.75;93.59;76920.69;5072137;28;20107;-67
2022/04/26 09:21:32;;;;;;;4.72;2.20;;;;;;;-142.75;91.42;76936.44;5071554;28;19926;-67
2022/04/26 09:24:02;;;;;;;6.05;1.88;;;;;;;-142.75;96.80;76952.19;5071613;28;20106;-67
2022/04/26 09:26:36;;;;;;;4.70;2.00;;;;;;;-142.75;90.29;76877.38;5070623;28;20190;-67
2022/04/26 09:29:03;;;;;;;5.30;1.58;;;;;;;-142.75;83.58;76881.31;5069958;28;20028;-67
2022/04/26 09:31:37;;;;;;;4.07;1.67;;;;;;;-142.75;83.69;76867.53;5071377;28;20028;-67
2022/04/26 09:34:09;;;;;;;4.07;1.65;;;;;;;-142.75;83.87;76889.19;5071592;28;20041;-67
2022/04/26 09:37:04;;;;;;;6.20;2.00;;;;;;;-142.75;77.28;76948.25;5068589;28;20111;-67
2022/04/26 09:39:29;;;;;;;3.10;1.98;;;;;;;-142.75;84.87;76940.38;5070531;28;20037;-67
2022/04/26 09:41:55;;;;;;;;;;;;;;;-142.75;79.57;76893.13;5072321;28;20026;-67
2022/04/26 09:44:30;;;;;;;4.07;1.58;;;;;;;-142.75;75.99;76967.94;5071912;28;19912;-67
2022/04/26 09:46:56;;;;;;;4.65;1.80;;;;;;;-142.75;77.50;77125.44;5071600;28;20501;-67
2022/04/26 09:49:22;;;;;;;;;;;;;;;-142.75;81.14;77164.81;5069878;28;20028;-67
2022/04/26 09:51:54;;;;;;;7.15;2.13;;;;;;;-142.75;80.24;77168.75;5071285;28;19977;-67
2022/04/26 09:54:20;;;;;;;7.03;2.10;;;;;;;-142.75;81.01;77149.06;5070796;28;20056;-67
2022/04/26 09:56:47;;;;;;;2.55;1.80;;;;;;;-142.75;79.95;77149.06;5071522;28;20052;-67
2022/04/26 09:59:13;;;;;;;;;;;;;;;-142.75;80.76;77121.50;5071192;28;20551;-67
2022/04/26 10:01:45;;;;;;;5.43;1.90;;;;;;;-142.75;77.43;77056.53;5071709;28;19991;-67
2022/04/26 10:04:15;;;;;;;2.85;1.90;;;;;;;-142.75;81.54;77038.81;5071188;28;20036;-67
2022/04/26 10:06:45;;;;;;;6.55;2.33;;;;;;;-142.75;81.14;76995.50;5071430;28;20162;-67
2022/04/26 10:11:46;;;;;;;4.65;2.00;;;;;;;-142.75;76.24;77162.84;5257323;22;20060;-64
2022/04/26 10:14:12;;;;;;;;;;;;;;;-142.75;75.81;77176.63;5039032;28;20029;-64
2022/04/26 10:16:38;;;;;;;5.50;2.00;;;;;;;-142.75;81.08;77231.75;5040753;28;19970;-64
2022/04/26 10:19:09;;;;;;;5.70;2.35;;;;;;;-142.75;83.06;77271.13;5050402;28;20052;-65
2022/04/26 10:21:40;;;;;;;5.45;2.63;;;;;;;-142.75;88.69;77314.44;5049776;28;20029;-65
2022/04/26 10:24:12;;;;;;;8.70;2.53;;;;;;;-142.75;80.81;77279.00;5049839;28;20052;-65
2022/04/26 10:26:38;;;;;;;3.45;2.00;;;;;;;-142.75;82.89;77172.69;5050264;28;20035;-65
2022/04/26 10:29:06;;;;;;;8.02;2.45;;;;;;;-142.75;80.37;77072.28;5050391;28;20024;-65
2022/04/26 10:31:42;;;;;;;4.82;1.73;;;;;;;-142.75;70.79;76987.63;5080321;22;20492;-64
2022/04/26 10:34:32;;;;;;;4.82;1.85;;;;;;;-142.75;65.11;76936.44;5068659;28;20102;-66
2022/04/26 10:37:07;;;;;;;4.47;1.88;;;;;;;-142.75;65.84;76869.50;5071552;28;20035;-65
2022/04/26 10:39:40;;;;;;;4.82;1.92;;;;;;;-142.75;64.55;76851.78;5071438;28;20035;-65
2022/04/26 10:42:07;;;;;;;4.25;2.08;;;;;;;-142.75;67.29;76834.06;5072367;28;20538;-65
2022/04/26 10:44:39;;;;;;;7.07;2.17;;;;;;;-142.75;63.58;76924.63;5070352;28;20031;-66
2022/04/26 10:47:04;;;;;;;4.45;1.65;;;;;;;-142.75;63.96;77007.31;5067667;28;20051;-66
2022/04/26 10:49:32;;;;;;;2.58;1.50;;;;;;;-142.75;62.70;77076.22;5070428;28;20485;-67
2022/04/26 10:52:23;;;;;;;1.90;1.30;;;;;;;-142.75;64.25;77105.75;5071137;28;20039;-67
2022/04/26 10:54:51;;;;;;;3.70;1.90;;;;;;;-142.75;67.15;77028.97;5071233;28;20074;-68
2022/04/26 10:57:31;;;;;;;3.63;1.70;;;;;;;-142.75;63.93;76956.13;5071036;28;20398;-68
2022/04/26 10:59:59;;;;;;;2.88;1.80;;;;;;;-142.75;62.81;76934.47;5070435;28;20056;-68
2022/04/26 11:02:27;;;;;;;4.95;2.00;;;;;;;-142.75;62.79;76936.44;5070928;28;20016;-68
2022/04/26 11:04:58;;;;;;;3.08;1.50;;;;;;;-142.75;63.66;76906.91;5069812;28;20028;-67
2022/04/26 11:07:26;;;;;;;3.30;1.60;;;;;;;-142.75;61.62;76981.72;5070436;28;20032;-68
2022/04/26 11:09:54;;;;;;;3.60;1.60;;;;;;;-142.75;67.08;76987.63;5070148;28;20060;-65
2022/04/26 11:12:20;;;;;;;5.47;1.98;;;;;;;-142.75;63.98;76960.06;5071325;28;20081;-66
2022/04/26 11:14:47;;;;;;;4.35;2.00;;;;;;;-142.75;59.86;77007.31;5070791;28;20040;-65
2022/04/26 11:17:14;;;;;;;6.50;1.60;;;;;;;-142.75;63.33;77040.78;5070648;28;20477;-65
2022/04/26 11:19:49;;;;;;;2.65;1.63;;;;;;;-142.75;62.31;77056.53;5069026;28;20028;-65
2022/04/26 11:22:15;;;;;;;5.55;1.40;;;;;;;-142.75;61.18;76971.88;5070533;28;20039;-66
2022/04/26 11:30:21;;;;;;;5.45;1.70;;;;;;;-142.75;62.15;76932.50;5070802;28;20123;-67
2022/04/26 11:32:47;;;;;;;4.35;1.50;;;;;;;-142.75;58.73;76853.75;5071018;28;20062;-67
2022/04/26 11:35:19;;;;;;;5.45;1.70;;;;;;;-142.75;60.94;76859.66;5071063;28;20032;-67
2022/04/26 11:37:47;;;;;;;4.95;1.80;;;;;;;-142.75;61.94;76786.84;5071094;28;20024;-66
2022/04/26 11:40:27;;;;;;;3.03;1.73;;;;;;;-142.75;62.04;76822.25;5070598;28;20017;-66
2022/04/26 11:42:56;;;;;;;3.08;1.80;;;;;;;-142.75;57.51;76857.69;5071296;28;20119;-66
2022/04/26 11:45:22;;;;;;;3.78;1.60;;;;;;;-142.75;59.82;76920.69;5069559;28;20032;-67
2022/04/26 11:47:49;;;;;;;2.95;1.33;;;;;;;-142.75;58.41;76932.50;5070917;28;20024;-66
2022/04/26 11:50:15;;;;;;;4.80;1.85;;;;;;;-142.75;58.65;76983.69;5070521;28;20033;-66
2022/04/26 11:52:43;;;;;;;2.90;1.42;;;;;;;-142.75;56.57;77052.59;5070598;28;20481;-66
2022/04/26 11:55:19;;;;;;;4.43;1.83;;;;;;;-142.75;58.59;77062.44;5069572;28;20032;-66
2022/04/26 11:57:46;;;;;;;6.10;1.98;;;;;;;-142.75;62.29;77030.94;5070681;28;20016;-66
2022/04/26 12:00:12;;;;;;;3.00;1.95;;;;;;;-142.75;65.15;77025.03;5070098;28;20020;-67
2022/04/26 12:02:37;;;;;;;5.45;2.45;;;;;;;-142.75;72.30;77066.38;5070212;28;20024;-66
2022/04/26 12:05:03;;;;;;;4.78;1.90;;;;;;;-142.75;71.47;77119.53;5070536;28;20047;-66
2022/04/26 12:07:30;;;;;;;;;;;;;;;-142.75;76.18;77154.97;5070741;28;20038;-66
2022/04/26 12:09:55;;;;;;;5.40;1.98;;;;;;;-142.75;79.05;77206.16;5068597;28;19924;-66
2022/04/26 12:12:20;;;;;;;;;;;;;;;-142.75;80.48;77255.38;5071315;28;20024;-67
2022/04/26 12:14:48;;;;;;;4.95;2.00;;;;;;;-142.75;79.45;77286.88;5070244;28;19916;-66
2022/04/26 12:17:26;;;;;;;3.88;2.35;;;;;;;-142.75;80.36;77296.72;5069806;28;20033;-67
2022/04/26 12:19:52;;;;;;;6.38;2.50;;;;;;;-142.75;80.53;77308.53;5069597;28;20017;-66
2022/04/26 12:22:18;;;;;;;4.70;2.22;;;;;;;-142.75;80.60;77318.38;5070126;28;20047;-66
2022/04/26 12:24:47;;;;;;;;;;;;;;;-142.75;85.17;77308.53;5070586;28;20074;-66
2022/04/26 12:27:15;;;;;;;3.97;1.80;;;;;;;-142.75;81.11;77296.72;5070009;28;20388;-66
2022/04/26 12:29:43;;;;;;;3.63;2.13;;;;;;;-142.75;81.21;77255.38;5069477;28;20079;-66
2022/04/26 12:32:19;;;;;;;5.60;2.28;;;;;;;-142.75;80.17;77200.25;5068679;28;20020;-66
2022/04/26 12:35:00;;;;;;;5.82;2.17;;;;;;;-142.75;75.66;77182.53;5070200;28;20031;-66
2022/04/26 12:37:31;;;;;;;7.68;2.13;;;;;;;-142.75;78.92;77176.63;5069777;28;20039;-66
2022/04/26 12:40:00;;;;;;;6.38;1.88;;;;;;;-142.75;74.87;77164.81;5069677;28;20028;-66
2022/04/26 12:42:30;;;;;;;4.80;1.90;;;;;;;-142.75;73.04;77101.81;5069330;28;20045;-66
2022/04/26 12:44:57;;;;;;;5.43;1.98;;;;;;;-142.75;71.33;77068.34;5069777;28;20036;-66
2022/04/26 12:50:31;;;;;;;4.63;1.88;;;;;;;-142.75;70.12;77072.28;5069470;28;20708;-67
2022/04/26 12:53:24;;;;;;;5.53;2.00;;;;;;;-142.75;71.66;77074.25;5069458;28;20481;-66
2022/04/26 12:55:49;;;;;;;3.50;1.70;;;;;;;-142.75;69.60;77048.66;5069407;28;20033;-66
2022/04/26 12:58:18;;;;;;;;;;;;;;;-142.75;70.70;76989.59;5070357;28;20099;-66
2022/04/26 13:00:52;;;;;;;4.32;1.63;;;;;;;-142.75;72.11;76997.47;5084694;28;19919;-66
2022/04/26 13:03:21;;;;;;;8.38;1.98;;;;;;;-142.75;67.21;76979.75;5069549;28;20059;-67
2022/04/26 13:05:50;;;;;;;6.47;2.00;;;;;;;-142.75;69.86;76995.50;5069854;28;20120;-66
2022/04/26 13:08:17;;;;;;;5.03;2.05;;;;;;;-142.75;68.39;76991.56;5069762;28;20024;-66
2022/04/26 13:10:44;;;;;;;4.03;2.50;;;;;;;-142.75;66.55;77017.16;5069038;28;20028;-66
2022/04/26 13:13:10;;;;;;;12.80;3.15;;;;;;;-142.75;69.50;77058.50;5070142;28;20024;-66
2022/04/26 13:15:36;;;;;;;4.18;2.05;;;;;;;-142.75;70.19;77105.75;5069562;28;20032;-66
2022/04/26 13:18:03;;;;;;;;;;;;;;;-142.75;67.78;77097.88;5070004;28;20389;-67
2022/04/26 13:20:29;;;;;;;3.67;1.80;;;;;;;-142.75;70.48;77121.50;5069157;28;19920;-66
2022/04/26 13:22:55;;;;;;;;;;;;;;;-142.75;70.18;77139.22;5069930;28;20040;-66
2022/04/26 13:25:20;;;;;;;6.20;1.98;;;;;;;-142.75;71.47;77160.88;5069362;28;19965;-66
2022/04/26 13:27:47;;;;;;;;;;;;;;;-142.75;68.40;77196.31;5070013;28;20386;-67
2022/04/26 13:30:13;;;;;;;4.70;2.05;;;;;;;-142.75;73.96;77190.41;5072255;28;20069;-66
2022/04/26 13:32:38;;;;;;;;;;;;;;;-142.75;71.71;77188.44;5073845;28;20733;-66
2022/04/26 13:35:05;;;;;;;6.70;1.90;;;;;;;-142.75;70.06;77192.38;5072919;28;20401;-67
2022/04/26 13:37:31;;;;;;;3.25;1.35;;;;;;;-142.75;72.32;77200.25;5072881;28;20020;-67
2022/04/26 13:39:58;;;;;;;;;;;;;;;-142.75;71.28;77251.44;5073222;28;20091;-67
2022/04/26 13:42:24;;;;;;;10.38;1.85;;;;;;;-142.75;71.96;77284.91;5073360;28;19919;-67
2022/04/26 13:44:52;;;;;;;6.80;2.10;;;;;;;-142.75;74.96;77275.06;5072691;28;20389;-67
2022/04/26 13:47:18;;;;;;;9.65;1.88;;;;;;;-142.75;74.37;77255.38;5072974;28;20401;-67
2022/04/26 13:49:43;;;;;;;3.22;1.67;;;;;;;-142.75;76.58;77245.53;5072245;28;20025;-67
2022/04/26 13:52:09;;;;;;;3.80;1.90;;;;;;;-142.75;76.61;77267.19;5072400;28;20029;-67
2022/04/26 13:54:34;;;;;;;;;;;;;;;-142.75;73.15;77298.69;5073226;28;20036;-67
2022/04/26 13:57:00;;;;;;;6.47;1.63;;;;;;;-142.75;74.54;77282.94;5072375;28;19920;-67
2022/04/26 13:59:25;;;;;;;;;;;;;;;-142.75;75.56;77290.81;5073043;28;20052;-67
2022/04/26 14:01:52;;;;;;;3.80;2.08;;;;;;;-142.75;72.99;77330.19;5072258;28;19912;-68
2022/04/26 14:04:19;;;;;;;3.72;1.88;;;;;;;-142.75;72.15;77342.00;5072386;28;20086;-67
2022/04/26 14:06:44;;;;;;;3.67;1.63;;;;;;;-142.75;73.66;77345.94;5072544;28;20472;-67
2022/04/26 14:09:10;;;;;;;7.28;2.35;;;;;;;-142.75;76.94;77349.88;5072282;28;20109;-68
2022/04/26 14:11:35;;;;;;;4.63;1.80;;;;;;;-142.75;76.52;77342.00;5072363;28;20382;-67
2022/04/26 14:22:12;;;;;;;4.07;1.83;;;;;;;-142.75;75.86;77406.97;5069989;28;20397;-68
2022/04/26 14:24:38;;;;;;;4.00;1.80;;;;;;;-142.75;77.25;77428.63;5071509;28;20024;-67
2022/04/26 14:27:04;;;;;;;4.25;1.90;;;;;;;-142.75;78.18;77450.28;5071700;28;20033;-67
2022/04/26 14:29:30;;;;;;;2.50;1.50;;;;;;;-142.75;77.48;77481.81;5071561;28;20032;-67
2022/04/26 14:31:55;;;;;;;;;;;;;;;-142.75;79.33;77481.81;5071298;28;20127;-67
2022/04/26 14:34:21;;;;;;;5.07;1.85;;;;;;;-142.75;81.37;77483.78;5071481;28;20033;-68
2022/04/26 14:36:47;;;;;;;4.18;1.45;;;;;;;-142.75;81.33;77479.84;5071730;28;20106;-67
2022/04/26 14:39:12;;;;;;;5.07;1.77;;;;;;;-142.75;81.58;77489.69;5071363;28;20504;-66
2022/04/26 14:41:39;;;;;;;;;;;;;;;-142.75;81.88;77529.06;5070430;28;20020;-68
2022/04/26 14:44:06;;;;;;;5.97;2.00;;;;;;;-142.75;81.24;77544.81;5072002;28;19943;-68
2022/04/26 14:46:32;;;;;;;5.38;1.48;;;;;;;-142.75;82.47;77533.00;5071387;28;20028;-67
2022/04/26 14:48:57;;;;;;;3.15;2.03;;;;;;;-142.75;87.12;77511.34;5071148;28;20051;-68
2022/04/26 14:51:23;;;;;;;2.55;1.60;;;;;;;-142.75;83.05;77538.91;5071093;28;20035;-68
2022/04/26 14:53:49;;;;;;;4.45;1.75;;;;;;;-142.75;82.89;77548.75;5070044;28;20039;-68
2022/04/26 14:56:14;;;;;;;4.82;1.52;;;;;;;-142.75;84.14;77554.66;5071422;28;20029;-67
2022/04/26 14:58:41;;;;;;;5.00;2.10;;;;;;;-142.75;86.04;77538.91;5071345;28;20115;-68
2022/04/26 15:01:06;;;;;;;3.30;1.85;;;;;;;-142.75;84.11;77550.72;5070835;28;20095;-67
2022/04/26 15:03:32;;;;;;;3.53;1.60;;;;;;;-142.75;83.19;77580.25;5070678;28;20128;-66
2022/04/26 15:06:00;;;;;;;5.85;1.83;;;;;;;-142.75;85.15;77601.91;5071051;28;20392;-67
2022/04/26 15:11:10;;;;;;;3.35;1.60;;;;;;;-142.75;84.68;77629.47;5070503;28;20120;-67
2022/04/26 15:16:38;;;;;;;4.38;1.85;;;;;;;-142.75;86.45;77627.50;5071183;28;20057;-67
2022/04/26 15:19:09;;;;;;;5.50;1.88;;;;;;;-142.75;86.66;77629.47;5069668;28;20028;-68
2022/04/26 15:21:35;;;;;;;5.20;2.20;;;;;;;-142.75;89.13;77657.03;5065772;28;20024;-67
2022/04/26 15:24:00;;;;;;;;;;;;;;;-142.75;91.96;77662.94;5070013;28;20504;-68
2022/04/26 15:26:25;;;;;;;5.75;1.58;;;;;;;-142.75;93.46;77651.13;5067933;28;19959;-67
2022/04/26 15:28:51;;;;;;;7.25;2.20;;;;;;;-142.75;94.18;77653.09;5067513;28;20059;-67
2022/04/26 15:31:18;;;;;;;;;;;;;;;-142.75;96.54;77641.28;5065281;28;20036;-67